sensor_id;sensor_type;location;lat;lon;timestamp;pressure;altitude;pressure_sealevel;temperature
28305;BMP280;15569;42.652;23.040;2024-03-08T00:00:26;92930.22;;;7.27
28305;BMP280;15569;42.652;23.040;2024-03-08T00:02:52;92915.59;;;7.20
28305;BMP280;15569;42.652;23.040;2024-03-08T00:05:17;92926.22;;;7.28
28305;BMP280;15569;42.652;23.040;2024-03-08T00:07:43;92925.09;;;7.43
28305;BMP280;15569;42.652;23.040;2024-03-08T00:10:10;92927.56;;;7.38
28305;BMP280;15569;42.652;23.040;2024-03-08T00:12:45;92921.41;;;7.59
28305;BMP280;15569;42.652;23.040;2024-03-08T00:15:13;92901.81;;;7.37
28305;BMP280;15569;42.652;23.040;2024-03-08T00:17:40;92911.66;;;7.33
28305;BMP280;15569;42.652;23.040;2024-03-08T00:20:06;92916.44;;;7.56
28305;BMP280;15569;42.652;23.040;2024-03-08T00:22:34;92918.97;;;7.42
28305;BMP280;15569;42.652;23.040;2024-03-08T00:24:59;92924.47;;;7.32
28305;BMP280;15569;42.652;23.040;2024-03-08T00:27:25;92916.81;;;7.29
28305;BMP280;15569;42.652;23.040;2024-03-08T00:29:50;92892.78;;;7.12
28305;BMP280;15569;42.652;23.040;2024-03-08T00:32:15;92908.91;;;7.21
28305;BMP280;15569;42.652;23.040;2024-03-08T00:34:42;92923.13;;;7.22
28305;BMP280;15569;42.652;23.040;2024-03-08T00:37:08;92916.50;;;7.13
28305;BMP280;15569;42.652;23.040;2024-03-08T00:39:34;92914.47;;;7.02
28305;BMP280;15569;42.652;23.040;2024-03-08T00:41:59;92918.56;;;6.61
28305;BMP280;15569;42.652;23.040;2024-03-08T00:44:24;92900.41;;;6.21
28305;BMP280;15569;42.652;23.040;2024-03-08T00:46:50;92904.09;;;6.26
28305;BMP280;15569;42.652;23.040;2024-03-08T00:49:16;92910.75;;;6.55
28305;BMP280;15569;42.652;23.040;2024-03-08T00:51:42;92895.88;;;6.45
28305;BMP280;15569;42.652;23.040;2024-03-08T00:54:08;92905.44;;;6.67
28305;BMP280;15569;42.652;23.040;2024-03-08T00:56:34;92905.72;;;6.71
28305;BMP280;15569;42.652;23.040;2024-03-08T00:59:01;92901.59;;;6.91
28305;BMP280;15569;42.652;23.040;2024-03-08T01:01:28;92897.59;;;6.92
28305;BMP280;15569;42.652;23.040;2024-03-08T01:03:53;92895.78;;;7.06
28305;BMP280;15569;42.652;23.040;2024-03-08T01:06:19;92898.81;;;7.22
28305;BMP280;15569;42.652;23.040;2024-03-08T01:08:45;92897.16;;;7.28
28305;BMP280;15569;42.652;23.040;2024-03-08T01:11:10;92872.81;;;7.28
28305;BMP280;15569;42.652;23.040;2024-03-08T01:13:37;92891.50;;;7.46
28305;BMP280;15569;42.652;23.040;2024-03-08T01:16:03;92886.44;;;7.52
28305;BMP280;15569;42.652;23.040;2024-03-08T01:18:29;92885.63;;;7.49
28305;BMP280;15569;42.652;23.040;2024-03-08T01:20:54;92874.84;;;7.28
28305;BMP280;15569;42.652;23.040;2024-03-08T01:23:20;92883.50;;;7.48
28305;BMP280;15569;42.652;23.040;2024-03-08T01:25:45;92871.41;;;7.49
28305;BMP280;15569;42.652;23.040;2024-03-08T01:28:10;92873.53;;;7.62
28305;BMP280;15569;42.652;23.040;2024-03-08T01:30:36;92876.00;;;7.58
28305;BMP280;15569;42.652;23.040;2024-03-08T01:33:03;92880.03;;;7.68
28305;BMP280;15569;42.652;23.040;2024-03-08T01:35:28;92867.31;;;7.71
28305;BMP280;15569;42.652;23.040;2024-03-08T01:37:54;92876.88;;;7.95
28305;BMP280;15569;42.652;23.040;2024-03-08T01:40:19;92871.47;;;8.18
28305;BMP280;15569;42.652;23.040;2024-03-08T01:42:45;92864.88;;;7.98
28305;BMP280;15569;42.652;23.040;2024-03-08T01:45:10;92867.13;;;8.01
28305;BMP280;15569;42.652;23.040;2024-03-08T01:47:35;92872.28;;;7.86
28305;BMP280;15569;42.652;23.040;2024-03-08T01:50:02;92853.34;;;8.09
28305;BMP280;15569;42.652;23.040;2024-03-08T01:52:31;92871.13;;;8.24
28305;BMP280;15569;42.652;23.040;2024-03-08T01:54:59;92871.22;;;8.37
28305;BMP280;15569;42.652;23.040;2024-03-08T01:57:26;92872.78;;;8.17
28305;BMP280;15569;42.652;23.040;2024-03-08T01:59:53;92872.63;;;8.27
28305;BMP280;15569;42.652;23.040;2024-03-08T02:02:21;92864.31;;;7.99
28305;BMP280;15569;42.652;23.040;2024-03-08T02:04:47;92869.47;;;8.07
28305;BMP280;15569;42.652;23.040;2024-03-08T02:07:12;92869.00;;;7.87
28305;BMP280;15569;42.652;23.040;2024-03-08T02:09:38;92868.75;;;7.95
28305;BMP280;15569;42.652;23.040;2024-03-08T02:12:05;92872.16;;;7.95
28305;BMP280;15569;42.652;23.040;2024-03-08T02:14:30;92862.88;;;7.87
28305;BMP280;15569;42.652;23.040;2024-03-08T02:17:00;92863.34;;;7.83
28305;BMP280;15569;42.652;23.040;2024-03-08T02:19:25;92865.59;;;7.98
28305;BMP280;15569;42.652;23.040;2024-03-08T02:21:51;92863.34;;;7.95
28305;BMP280;15569;42.652;23.040;2024-03-08T02:24:16;92866.59;;;7.70
28305;BMP280;15569;42.652;23.040;2024-03-08T02:26:42;92867.13;;;7.90
28305;BMP280;15569;42.652;23.040;2024-03-08T02:29:08;92866.16;;;7.85
28305;BMP280;15569;42.652;23.040;2024-03-08T02:31:34;92872.28;;;8.21
28305;BMP280;15569;42.652;23.040;2024-03-08T02:33:59;92861.44;;;8.09
28305;BMP280;15569;42.652;23.040;2024-03-08T02:36:25;92864.06;;;8.07
28305;BMP280;15569;42.652;23.040;2024-03-08T02:38:50;92875.59;;;8.19
28305;BMP280;15569;42.652;23.040;2024-03-08T02:41:15;92873.44;;;8.06
28305;BMP280;15569;42.652;23.040;2024-03-08T02:43:41;92877.50;;;8.05
28305;BMP280;15569;42.652;23.040;2024-03-08T02:46:06;92871.72;;;7.99
28305;BMP280;15569;42.652;23.040;2024-03-08T02:48:32;92867.47;;;8.19
28305;BMP280;15569;42.652;23.040;2024-03-08T02:50:57;92874.63;;;8.38
28305;BMP280;15569;42.652;23.040;2024-03-08T02:53:23;92867.34;;;8.17
28305;BMP280;15569;42.652;23.040;2024-03-08T02:55:49;92862.88;;;7.98
28305;BMP280;15569;42.652;23.040;2024-03-08T02:58:15;92859.56;;;8.00
28305;BMP280;15569;42.652;23.040;2024-03-08T03:00:40;92862.41;;;7.90
28305;BMP280;15569;42.652;23.040;2024-03-08T03:03:06;92858.00;;;7.74
28305;BMP280;15569;42.652;23.040;2024-03-08T03:05:32;92859.56;;;7.77
28305;BMP280;15569;42.652;23.040;2024-03-08T03:07:59;92860.06;;;7.96
28305;BMP280;15569;42.652;23.040;2024-03-08T03:10:25;92861.59;;;8.11
28305;BMP280;15569;42.652;23.040;2024-03-08T03:12:51;92867.22;;;7.92
28305;BMP280;15569;42.652;23.040;2024-03-08T03:15:17;92869.00;;;7.87
28305;BMP280;15569;42.652;23.040;2024-03-08T03:17:49;92869.22;;;8.03
28305;BMP280;15569;42.652;23.040;2024-03-08T03:20:18;92879.25;;;8.24
28305;BMP280;15569;42.652;23.040;2024-03-08T03:22:57;92885.63;;;8.05
28305;BMP280;15569;42.652;23.040;2024-03-08T03:25:23;92882.16;;;8.16
28305;BMP280;15569;42.652;23.040;2024-03-08T03:27:50;92887.84;;;8.20
28305;BMP280;15569;42.652;23.040;2024-03-08T03:30:16;92889.94;;;8.10
28305;BMP280;15569;42.652;23.040;2024-03-08T03:32:48;92890.56;;;8.20
28305;BMP280;15569;42.652;23.040;2024-03-08T03:35:14;92895.25;;;8.20
28305;BMP280;15569;42.652;23.040;2024-03-08T03:37:42;92894.66;;;8.56
28305;BMP280;15569;42.652;23.040;2024-03-08T03:40:11;92899.00;;;9.09
28305;BMP280;15569;42.652;23.040;2024-03-08T03:42:36;92900.94;;;9.32
28305;BMP280;15569;42.652;23.040;2024-03-08T03:45:05;92895.34;;;8.68
28305;BMP280;15569;42.652;23.040;2024-03-08T03:47:30;92896.72;;;8.69
28305;BMP280;15569;42.652;23.040;2024-03-08T03:49:56;92897.75;;;9.24
28305;BMP280;15569;42.652;23.040;2024-03-08T03:52:26;92897.44;;;8.81
28305;BMP280;15569;42.652;23.040;2024-03-08T03:54:52;92901.75;;;8.86
28305;BMP280;15569;42.652;23.040;2024-03-08T03:57:18;92899.13;;;8.17
28305;BMP280;15569;42.652;23.040;2024-03-08T03:59:44;92891.56;;;8.73
28305;BMP280;15569;42.652;23.040;2024-03-08T04:02:09;92906.28;;;9.18
28305;BMP280;15569;42.652;23.040;2024-03-08T04:04:34;92902.13;;;8.80
28305;BMP280;15569;42.652;23.040;2024-03-08T04:07:00;92908.78;;;7.96
28305;BMP280;15569;42.652;23.040;2024-03-08T04:09:27;92908.63;;;7.38
28305;BMP280;15569;42.652;23.040;2024-03-08T04:11:52;92897.03;;;7.48
28305;BMP280;15569;42.652;23.040;2024-03-08T04:14:20;92919.94;;;7.47
28305;BMP280;15569;42.652;23.040;2024-03-08T04:16:46;92918.19;;;7.18
28305;BMP280;15569;42.652;23.040;2024-03-08T04:19:13;92921.00;;;7.20
28305;BMP280;15569;42.652;23.040;2024-03-08T04:21:39;92913.09;;;7.34
28305;BMP280;15569;42.652;23.040;2024-03-08T04:24:04;92917.19;;;7.79
28305;BMP280;15569;42.652;23.040;2024-03-08T04:26:31;92924.94;;;7.73
28305;BMP280;15569;42.652;23.040;2024-03-08T04:28:56;92926.94;;;7.61
28305;BMP280;15569;42.652;23.040;2024-03-08T04:31:22;92930.28;;;7.83
28305;BMP280;15569;42.652;23.040;2024-03-08T04:33:47;92923.03;;;7.64
28305;BMP280;15569;42.652;23.040;2024-03-08T04:36:13;92923.16;;;7.55
28305;BMP280;15569;42.652;23.040;2024-03-08T04:38:39;92936.84;;;7.80
28305;BMP280;15569;42.652;23.040;2024-03-08T04:41:06;92918.47;;;7.67
28305;BMP280;15569;42.652;23.040;2024-03-08T04:43:32;92936.34;;;8.04
28305;BMP280;15569;42.652;23.040;2024-03-08T04:45:57;92926.81;;;7.59
28305;BMP280;15569;42.652;23.040;2024-03-08T04:48:23;92931.34;;;7.78
28305;BMP280;15569;42.652;23.040;2024-03-08T04:50:48;92937.13;;;7.95
28305;BMP280;15569;42.652;23.040;2024-03-08T04:53:14;92939.59;;;7.91
28305;BMP280;15569;42.652;23.040;2024-03-08T04:55:39;92940.56;;;8.07
28305;BMP280;15569;42.652;23.040;2024-03-08T04:58:05;92943.75;;;8.27
28305;BMP280;15569;42.652;23.040;2024-03-08T05:00:33;92948.69;;;8.31
28305;BMP280;15569;42.652;23.040;2024-03-08T05:02:58;92948.13;;;8.55
28305;BMP280;15569;42.652;23.040;2024-03-08T05:05:24;92941.28;;;8.54
28305;BMP280;15569;42.652;23.040;2024-03-08T05:07:50;92952.47;;;8.60
28305;BMP280;15569;42.652;23.040;2024-03-08T05:10:15;92944.78;;;8.68
28305;BMP280;15569;42.652;23.040;2024-03-08T05:12:43;92951.66;;;8.23
28305;BMP280;15569;42.652;23.040;2024-03-08T05:15:09;92956.38;;;8.46
28305;BMP280;15569;42.652;23.040;2024-03-08T05:17:34;92952.72;;;8.53
28305;BMP280;15569;42.652;23.040;2024-03-08T05:19:59;92954.25;;;8.67
28305;BMP280;15569;42.652;23.040;2024-03-08T05:22:25;92963.44;;;8.51
28305;BMP280;15569;42.652;23.040;2024-03-08T05:24:51;92969.91;;;8.57
28305;BMP280;15569;42.652;23.040;2024-03-08T05:27:16;92960.16;;;7.85
28305;BMP280;15569;42.652;23.040;2024-03-08T05:29:42;92977.06;;;8.18
28305;BMP280;15569;42.652;23.040;2024-03-08T05:32:07;92983.06;;;8.05
28305;BMP280;15569;42.652;23.040;2024-03-08T05:34:32;92990.28;;;8.47
28305;BMP280;15569;42.652;23.040;2024-03-08T05:36:58;92987.25;;;8.52
28305;BMP280;15569;42.652;23.040;2024-03-08T05:39:24;92983.47;;;8.46
28305;BMP280;15569;42.652;23.040;2024-03-08T05:41:50;92990.97;;;8.24
28305;BMP280;15569;42.652;23.040;2024-03-08T05:44:16;93000.63;;;8.39
28305;BMP280;15569;42.652;23.040;2024-03-08T05:46:44;92993.91;;;8.28
28305;BMP280;15569;42.652;23.040;2024-03-08T05:49:09;92990.41;;;8.26
28305;BMP280;15569;42.652;23.040;2024-03-08T05:51:38;93006.41;;;8.33
28305;BMP280;15569;42.652;23.040;2024-03-08T05:54:05;93003.19;;;8.02
28305;BMP280;15569;42.652;23.040;2024-03-08T05:56:31;93004.66;;;8.26
28305;BMP280;15569;42.652;23.040;2024-03-08T05:58:57;93007.91;;;8.13
28305;BMP280;15569;42.652;23.040;2024-03-08T06:01:26;93016.25;;;8.17
28305;BMP280;15569;42.652;23.040;2024-03-08T06:03:54;93020.72;;;8.13
28305;BMP280;15569;42.652;23.040;2024-03-08T06:06:23;93021.69;;;8.17
28305;BMP280;15569;42.652;23.040;2024-03-08T06:08:50;93010.78;;;7.61
28305;BMP280;15569;42.652;23.040;2024-03-08T06:11:16;93021.41;;;8.01
28305;BMP280;15569;42.652;23.040;2024-03-08T06:13:43;93020.94;;;7.93
28305;BMP280;15569;42.652;23.040;2024-03-08T06:16:08;93021.81;;;8.19
28305;BMP280;15569;42.652;23.040;2024-03-08T06:18:34;93032.56;;;7.96
28305;BMP280;15569;42.652;23.040;2024-03-08T06:21:06;93029.19;;;8.07
28305;BMP280;15569;42.652;23.040;2024-03-08T06:23:32;93027.41;;;8.00
28305;BMP280;15569;42.652;23.040;2024-03-08T06:25:57;93027.41;;;8.00
28305;BMP280;15569;42.652;23.040;2024-03-08T06:28:23;93038.19;;;8.33
28305;BMP280;15569;42.652;23.040;2024-03-08T06:30:48;93030.78;;;8.33
28305;BMP280;15569;42.652;23.040;2024-03-08T06:33:15;93032.94;;;7.69
28305;BMP280;15569;42.652;23.040;2024-03-08T06:35:41;93035.38;;;7.98
28305;BMP280;15569;42.652;23.040;2024-03-08T06:38:07;93039.28;;;8.51
28305;BMP280;15569;42.652;23.040;2024-03-08T06:40:32;93043.06;;;8.46
28305;BMP280;15569;42.652;23.040;2024-03-08T06:42:57;93037.53;;;8.44
28305;BMP280;15569;42.652;23.040;2024-03-08T06:45:23;93046.38;;;8.67
28305;BMP280;15569;42.652;23.040;2024-03-08T06:47:49;93042.69;;;8.40
28305;BMP280;15569;42.652;23.040;2024-03-08T06:50:15;93054.50;;;8.67
28305;BMP280;15569;42.652;23.040;2024-03-08T06:52:40;93058.66;;;9.03
28305;BMP280;15569;42.652;23.040;2024-03-08T06:55:08;93057.63;;;9.45
28305;BMP280;15569;42.652;23.040;2024-03-08T06:57:40;93067.78;;;9.44
28305;BMP280;15569;42.652;23.040;2024-03-08T07:00:08;93052.66;;;9.53
28305;BMP280;15569;42.652;23.040;2024-03-08T07:02:40;93070.13;;;9.50
28305;BMP280;15569;42.652;23.040;2024-03-08T07:05:06;93064.41;;;9.09
28305;BMP280;15569;42.652;23.040;2024-03-08T07:07:31;93064.41;;;9.09
28305;BMP280;15569;42.652;23.040;2024-03-08T07:09:59;93048.84;;;8.87
28305;BMP280;15569;42.652;23.040;2024-03-08T07:12:24;93068.72;;;9.37
28305;BMP280;15569;42.652;23.040;2024-03-08T07:14:50;93052.44;;;9.49
28305;BMP280;15569;42.652;23.040;2024-03-08T07:17:15;93049.50;;;9.33
28305;BMP280;15569;42.652;23.040;2024-03-08T07:19:41;93054.41;;;9.60
28305;BMP280;15569;42.652;23.040;2024-03-08T07:22:07;93053.84;;;9.50
28305;BMP280;15569;42.652;23.040;2024-03-08T07:24:35;93036.91;;;9.26
28305;BMP280;15569;42.652;23.040;2024-03-08T07:27:17;93052.13;;;9.31
28305;BMP280;15569;42.652;23.040;2024-03-08T07:29:43;93045.91;;;8.94
28305;BMP280;15569;42.652;23.040;2024-03-08T07:32:08;93048.63;;;8.94
28305;BMP280;15569;42.652;23.040;2024-03-08T07:34:50;93033.53;;;8.91
28305;BMP280;15569;42.652;23.040;2024-03-08T07:37:17;93045.53;;;9.23
28305;BMP280;15569;42.652;23.040;2024-03-08T07:39:42;93046.81;;;9.33
28305;BMP280;15569;42.652;23.040;2024-03-08T07:42:08;93035.53;;;9.02
28305;BMP280;15569;42.652;23.040;2024-03-08T07:44:35;93041.78;;;9.53
28305;BMP280;15569;42.652;23.040;2024-03-08T07:47:00;93021.59;;;9.08
28305;BMP280;15569;42.652;23.040;2024-03-08T07:49:25;93047.88;;;9.17
28305;BMP280;15569;42.652;23.040;2024-03-08T07:51:51;93049.88;;;9.39
28305;BMP280;15569;42.652;23.040;2024-03-08T07:54:17;93045.53;;;9.71
28305;BMP280;15569;42.652;23.040;2024-03-08T07:56:42;93052.34;;;9.84
28305;BMP280;15569;42.652;23.040;2024-03-08T07:59:08;93065.41;;;9.87
28305;BMP280;15569;42.652;23.040;2024-03-08T08:01:33;93056.50;;;9.98
28305;BMP280;15569;42.652;23.040;2024-03-08T08:03:59;93060.78;;;10.40
28305;BMP280;15569;42.652;23.040;2024-03-08T08:06:26;93061.56;;;10.68
28305;BMP280;15569;42.652;23.040;2024-03-08T08:08:52;93060.44;;;10.73
28305;BMP280;15569;42.652;23.040;2024-03-08T08:11:17;93050.28;;;10.87
28305;BMP280;15569;42.652;23.040;2024-03-08T08:13:43;93052.47;;;10.50
28305;BMP280;15569;42.652;23.040;2024-03-08T08:16:09;93059.59;;;10.43
28305;BMP280;15569;42.652;23.040;2024-03-08T08:18:34;93062.13;;;10.53
28305;BMP280;15569;42.652;23.040;2024-03-08T08:21:01;93055.31;;;9.76
28305;BMP280;15569;42.652;23.040;2024-03-08T08:23:26;93053.72;;;10.35
28305;BMP280;15569;42.652;23.040;2024-03-08T08:25:52;93065.56;;;10.67
28305;BMP280;15569;42.652;23.040;2024-03-08T08:28:17;93061.56;;;10.95
28305;BMP280;15569;42.652;23.040;2024-03-08T08:30:44;93056.31;;;11.13
28305;BMP280;15569;42.652;23.040;2024-03-08T08:33:09;93054.13;;;10.82
28305;BMP280;15569;42.652;23.040;2024-03-08T08:35:36;93060.16;;;10.94
28305;BMP280;15569;42.652;23.040;2024-03-08T08:38:02;93049.75;;;11.31
28305;BMP280;15569;42.652;23.040;2024-03-08T08:40:29;93050.69;;;11.22
28305;BMP280;15569;42.652;23.040;2024-03-08T08:42:56;93045.72;;;11.19
28305;BMP280;15569;42.652;23.040;2024-03-08T08:45:25;93056.66;;;10.91
28305;BMP280;15569;42.652;23.040;2024-03-08T08:47:50;93055.03;;;11.27
28305;BMP280;15569;42.652;23.040;2024-03-08T08:50:16;93041.19;;;11.37
28305;BMP280;15569;42.652;23.040;2024-03-08T08:52:47;93049.81;;;11.60
28305;BMP280;15569;42.652;23.040;2024-03-08T08:55:13;93042.81;;;11.42
28305;BMP280;15569;42.652;23.040;2024-03-08T08:57:42;93050.69;;;12.08
28305;BMP280;15569;42.652;23.040;2024-03-08T09:00:08;93049.56;;;12.28
28305;BMP280;15569;42.652;23.040;2024-03-08T09:02:33;93055.00;;;12.28
28305;BMP280;15569;42.652;23.040;2024-03-08T09:04:59;93055.41;;;12.52
28305;BMP280;15569;42.652;23.040;2024-03-08T09:07:26;93051.06;;;12.78
28305;BMP280;15569;42.652;23.040;2024-03-08T09:09:53;93052.56;;;12.81
28305;BMP280;15569;42.652;23.040;2024-03-08T09:12:22;93055.03;;;12.91
28305;BMP280;15569;42.652;23.040;2024-03-08T09:14:47;93056.00;;;12.82
28305;BMP280;15569;42.652;23.040;2024-03-08T09:17:13;93048.34;;;12.62
28305;BMP280;15569;42.652;23.040;2024-03-08T09:19:42;93060.88;;;13.01
28305;BMP280;15569;42.652;23.040;2024-03-08T09:22:08;93055.47;;;12.85
28305;BMP280;15569;42.652;23.040;2024-03-08T09:24:33;93050.88;;;12.90
28305;BMP280;15569;42.652;23.040;2024-03-08T09:26:59;93057.56;;;13.02
28305;BMP280;15569;42.652;23.040;2024-03-08T09:29:24;93048.09;;;12.72
28305;BMP280;15569;42.652;23.040;2024-03-08T09:31:50;93045.38;;;13.21
28305;BMP280;15569;42.652;23.040;2024-03-08T09:34:15;93056.47;;;13.09
28305;BMP280;15569;42.652;23.040;2024-03-08T09:36:40;93055.09;;;13.41
28305;BMP280;15569;42.652;23.040;2024-03-08T09:39:06;93063.38;;;13.28
28305;BMP280;15569;42.652;23.040;2024-03-08T09:41:33;93040.41;;;12.84
28305;BMP280;15569;42.652;23.040;2024-03-08T09:44:00;93057.94;;;13.12
28305;BMP280;15569;42.652;23.040;2024-03-08T09:46:25;93065.56;;;13.31
28305;BMP280;15569;42.652;23.040;2024-03-08T09:48:53;93066.03;;;13.59
28305;BMP280;15569;42.652;23.040;2024-03-08T09:51:21;93069.56;;;13.97
28305;BMP280;15569;42.652;23.040;2024-03-08T09:53:52;93068.84;;;13.79
28305;BMP280;15569;42.652;23.040;2024-03-08T09:56:19;93067.56;;;13.46
28305;BMP280;15569;42.652;23.040;2024-03-08T09:58:44;93050.41;;;13.11
28305;BMP280;15569;42.652;23.040;2024-03-08T10:01:39;93063.28;;;13.41
28305;BMP280;15569;42.652;23.040;2024-03-08T10:04:04;93059.59;;;13.35
28305;BMP280;15569;42.652;23.040;2024-03-08T10:06:30;93062.03;;;13.44
28305;BMP280;15569;42.652;23.040;2024-03-08T10:08:56;93058.16;;;13.85
28305;BMP280;15569;42.652;23.040;2024-03-08T10:11:21;93054.44;;;14.31
28305;BMP280;15569;42.652;23.040;2024-03-08T10:13:48;93044.78;;;14.28
28305;BMP280;15569;42.652;23.040;2024-03-08T10:16:15;93055.75;;;14.67
28305;BMP280;15569;42.652;23.040;2024-03-08T10:18:42;93051.47;;;15.01
28305;BMP280;15569;42.652;23.040;2024-03-08T10:21:08;93056.69;;;14.93
28305;BMP280;15569;42.652;23.040;2024-03-08T10:23:35;93057.84;;;14.88
28305;BMP280;15569;42.652;23.040;2024-03-08T10:26:22;93058.47;;;15.06
28305;BMP280;15569;42.652;23.040;2024-03-08T10:28:49;93059.69;;;14.82
28305;BMP280;15569;42.652;23.040;2024-03-08T10:31:15;93055.75;;;15.06
28305;BMP280;15569;42.652;23.040;2024-03-08T10:33:40;93047.09;;;14.94
28305;BMP280;15569;42.652;23.040;2024-03-08T10:36:10;93037.66;;;14.78
28305;BMP280;15569;42.652;23.040;2024-03-08T10:38:40;93040.28;;;14.93
28305;BMP280;15569;42.652;23.040;2024-03-08T10:41:06;93042.16;;;15.30
28305;BMP280;15569;42.652;23.040;2024-03-08T10:49:25;93038.09;;;15.74
28305;BMP280;15569;42.652;23.040;2024-03-08T10:51:51;93033.84;;;15.06
28305;BMP280;15569;42.652;23.040;2024-03-08T10:54:18;93024.03;;;15.86
28305;BMP280;15569;42.652;23.040;2024-03-08T10:56:45;93021.06;;;15.78
28305;BMP280;15569;42.652;23.040;2024-03-08T10:59:13;93014.88;;;15.77
28305;BMP280;15569;42.652;23.040;2024-03-08T11:01:39;93014.41;;;16.06
28305;BMP280;15569;42.652;23.040;2024-03-08T11:04:05;93016.81;;;16.44
28305;BMP280;15569;42.652;23.040;2024-03-08T11:09:02;92992.06;;;16.67
28305;BMP280;15569;42.652;23.040;2024-03-08T11:11:31;92998.59;;;16.54
28305;BMP280;15569;42.652;23.040;2024-03-08T11:13:57;93000.28;;;16.65
28305;BMP280;15569;42.652;23.040;2024-03-08T11:18:58;93003.38;;;16.79
28305;BMP280;15569;42.652;23.040;2024-03-08T11:21:30;92998.16;;;16.89
28305;BMP280;15569;42.652;23.040;2024-03-08T11:24:00;92983.47;;;17.06
28305;BMP280;15569;42.652;23.040;2024-03-08T11:26:26;92993.41;;;17.20
28305;BMP280;15569;42.652;23.040;2024-03-08T11:28:51;92995.38;;;17.17
28305;BMP280;15569;42.652;23.040;2024-03-08T11:31:22;92985.44;;;16.76
28305;BMP280;15569;42.652;23.040;2024-03-08T11:33:47;92999.91;;;16.79
28305;BMP280;15569;42.652;23.040;2024-03-08T11:36:24;92995.56;;;16.95
28305;BMP280;15569;42.652;23.040;2024-03-08T11:38:53;92986.94;;;17.37
28305;BMP280;15569;42.652;23.040;2024-03-08T11:41:24;92991.16;;;17.42
28305;BMP280;15569;42.652;23.040;2024-03-08T11:44:03;92994.06;;;17.48
28305;BMP280;15569;42.652;23.040;2024-03-08T11:46:46;92984.38;;;17.74
28305;BMP280;15569;42.652;23.040;2024-03-08T11:49:14;92990.66;;;17.79
28305;BMP280;15569;42.652;23.040;2024-03-08T11:51:41;92984.16;;;17.96
28305;BMP280;15569;42.652;23.040;2024-03-08T11:54:12;92968.16;;;17.88
28305;BMP280;15569;42.652;23.040;2024-03-08T11:56:38;92984.94;;;18.36
28305;BMP280;15569;42.652;23.040;2024-03-08T11:59:04;92974.72;;;18.41
28305;BMP280;15569;42.652;23.040;2024-03-08T12:01:30;92984.44;;;18.46
28305;BMP280;15569;42.652;23.040;2024-03-08T12:03:57;92986.03;;;18.94
28305;BMP280;15569;42.652;23.040;2024-03-08T12:06:24;92974.56;;;18.68
28305;BMP280;15569;42.652;23.040;2024-03-08T12:08:51;92966.19;;;19.46
28305;BMP280;15569;42.652;23.040;2024-03-08T12:11:19;92986.47;;;19.66
28305;BMP280;15569;42.652;23.040;2024-03-08T12:13:49;92971.63;;;19.44
28305;BMP280;15569;42.652;23.040;2024-03-08T12:16:17;92975.03;;;18.96
28305;BMP280;15569;42.652;23.040;2024-03-08T12:18:44;92962.41;;;18.44
28305;BMP280;15569;42.652;23.040;2024-03-08T12:21:11;92979.34;;;18.68
28305;BMP280;15569;42.652;23.040;2024-03-08T12:23:38;92973.38;;;18.79
28305;BMP280;15569;42.652;23.040;2024-03-08T12:26:18;92960.69;;;18.27
28305;BMP280;15569;42.652;23.040;2024-03-08T12:28:44;92973.56;;;17.84
28305;BMP280;15569;42.652;23.040;2024-03-08T12:31:13;92966.81;;;17.58
28305;BMP280;15569;42.652;23.040;2024-03-08T12:33:51;92971.44;;;17.79
28305;BMP280;15569;42.652;23.040;2024-03-08T12:36:18;92971.97;;;18.05
28305;BMP280;15569;42.652;23.040;2024-03-08T12:38:44;92977.09;;;17.89
28305;BMP280;15569;42.652;23.040;2024-03-08T12:41:13;92978.28;;;17.80
28305;BMP280;15569;42.652;23.040;2024-03-08T12:43:39;92972.53;;;17.68
28305;BMP280;15569;42.652;23.040;2024-03-08T12:46:04;92963.34;;;17.89
28305;BMP280;15569;42.652;23.040;2024-03-08T12:48:34;92961.00;;;17.75
28305;BMP280;15569;42.652;23.040;2024-03-08T12:51:00;92968.25;;;17.92
28305;BMP280;15569;42.652;23.040;2024-03-08T12:53:26;92966.44;;;18.05
28305;BMP280;15569;42.652;23.040;2024-03-08T12:55:54;92968.28;;;18.26
28305;BMP280;15569;42.652;23.040;2024-03-08T12:58:21;92965.03;;;19.17
28305;BMP280;15569;42.652;23.040;2024-03-08T13:00:47;92951.91;;;19.61
28305;BMP280;15569;42.652;23.040;2024-03-08T13:03:12;92955.53;;;19.74
28305;BMP280;15569;42.652;23.040;2024-03-08T13:05:38;92959.06;;;19.80
28305;BMP280;15569;42.652;23.040;2024-03-08T13:08:06;92955.38;;;19.62
28305;BMP280;15569;42.652;23.040;2024-03-08T13:10:37;92952.28;;;18.96
28305;BMP280;15569;42.652;23.040;2024-03-08T13:13:03;92951.47;;;18.12
28305;BMP280;15569;42.652;23.040;2024-03-08T13:15:30;92953.88;;;17.96
28305;BMP280;15569;42.652;23.040;2024-03-08T13:17:55;92957.13;;;17.86
28305;BMP280;15569;42.652;23.040;2024-03-08T13:20:23;92969.72;;;17.34
28305;BMP280;15569;42.652;23.040;2024-03-08T13:22:48;92958.34;;;17.18
28305;BMP280;15569;42.652;23.040;2024-03-08T13:25:14;92947.63;;;17.00
28305;BMP280;15569;42.652;23.040;2024-03-08T13:27:42;92952.63;;;16.80
28305;BMP280;15569;42.652;23.040;2024-03-08T13:30:09;92951.06;;;16.73
28305;BMP280;15569;42.652;23.040;2024-03-08T13:32:44;92947.06;;;16.01
28305;BMP280;15569;42.652;23.040;2024-03-08T13:35:10;92949.75;;;16.25
28305;BMP280;15569;42.652;23.040;2024-03-08T13:37:42;92955.47;;;15.84
28305;BMP280;15569;42.652;23.040;2024-03-08T13:40:09;92956.75;;;15.81
28305;BMP280;15569;42.652;23.040;2024-03-08T13:42:40;92955.44;;;15.60
28305;BMP280;15569;42.652;23.040;2024-03-08T13:45:08;92949.28;;;15.60
28305;BMP280;15569;42.652;23.040;2024-03-08T13:47:40;92949.63;;;15.50
28305;BMP280;15569;42.652;23.040;2024-03-08T13:50:10;92955.47;;;15.17
28305;BMP280;15569;42.652;23.040;2024-03-08T13:52:39;92947.06;;;15.33
28305;BMP280;15569;42.652;23.040;2024-03-08T13:55:05;92962.97;;;15.16
28305;BMP280;15569;42.652;23.040;2024-03-08T13:57:32;92950.75;;;15.41
28305;BMP280;15569;42.652;23.040;2024-03-08T13:59:58;92950.44;;;15.31
28305;BMP280;15569;42.652;23.040;2024-03-08T14:02:23;92938.28;;;15.14
28305;BMP280;15569;42.652;23.040;2024-03-08T14:04:56;92948.78;;;15.22
28305;BMP280;15569;42.652;23.040;2024-03-08T14:07:22;92951.16;;;15.32
28305;BMP280;15569;42.652;23.040;2024-03-08T14:09:48;92947.81;;;14.92
28305;BMP280;15569;42.652;23.040;2024-03-08T14:12:14;92957.75;;;15.24